Time;durP1;ratioP1;P1;durP2;ratioP2;P2;SDS_P1;SDS_P2;PMS_P1;PMS_P2;Temp;Humidity;BMP_temperature;BMP_pressure;BME280_temperature;BME280_humidity;BME280_pressure;Samples;Min_cycle;Max_cycle;Signal;HPM_P1;HPM_P2
2022/10/24 00:01:18;;;;;;;3.72;2.40;;;19.10;99.90;;;;;;5050226;28;20070;-59
2022/10/24 00:03:46;;;;;;;3.13;1.25;;;19.20;99.90;;;;;;5054935;28;20025;-60
2022/10/24 00:06:14;;;;;;;3.42;1.17;;;19.30;99.90;;;;;;5051827;28;20481;-60
2022/10/24 00:08:42;;;;;;;3.28;1.10;;;19.40;99.90;;;;;;5050244;28;20497;-60
2022/10/24 00:11:19;;;;;;;1.40;0.70;;;19.40;99.90;;;;;;5047743;28;20070;-60
2022/10/24 00:13:47;;;;;;;0.82;0.60;;;19.20;99.90;;;;;;5050916;28;20056;-59
2022/10/24 00:16:14;;;;;;;1.30;0.60;;;19.10;99.90;;;;;;5045014;28;20128;-59
2022/10/24 00:18:42;;;;;;;2.25;0.70;;;19.00;99.90;;;;;;5041926;28;20462;-62
2022/10/24 00:21:10;;;;;;;2.20;0.60;;;19.00;99.90;;;;;;5057938;28;20041;-59
2022/10/24 00:23:38;;;;;;;2.67;0.70;;;19.00;99.90;;;;;;5052083;28;20025;-60
2022/10/24 00:26:06;;;;;;;2.35;1.08;;;19.10;99.90;;;;;;5045416;28;20103;-60
2022/10/24 00:28:36;;;;;;;3.80;0.85;;;19.20;99.90;;;;;;5056080;28;20442;-60
2022/10/24 00:31:05;;;;;;;1.55;0.50;;;19.20;99.90;;;;;;5055248;28;20021;-60
2022/10/24 00:33:33;;;;;;;0.95;0.70;;;19.20;99.90;;;;;;5057151;28;20021;-59
2022/10/24 00:36:00;;;;;;;2.63;0.85;;;19.10;99.90;;;;;;5046107;28;20036;-61
2022/10/24 00:38:27;;;;;;;3.40;0.93;;;19.20;99.90;;;;;;5047736;28;20080;-60
2022/10/24 00:40:55;;;;;;;2.03;0.88;;;19.30;99.90;;;;;;5045056;28;20112;-63
2022/10/24 00:43:25;;;;;;;3.22;1.25;;;19.30;99.90;;;;;;5041991;28;20070;-59
2022/10/24 00:45:57;;;;;;;2.75;0.65;;;19.30;99.90;;;;;;5045664;28;20115;-59
2022/10/24 00:48:34;;;;;;;1.90;0.70;;;19.40;99.90;;;;;;5045326;28;20035;-60
2022/10/24 00:51:20;;;;;;;3.38;0.90;;;19.40;99.90;;;;;;5052099;28;20067;-60
2022/10/24 00:53:55;;;;;;;1.10;0.50;;;19.40;99.90;;;;;;5044017;28;20041;-59
2022/10/24 00:56:27;;;;;;;1.27;0.50;;;19.40;99.90;;;;;;5048850;28;20033;-59
2022/10/24 00:58:56;;;;;;;1.30;0.50;;;19.40;99.90;;;;;;5053344;28;20028;-60
2022/10/24 01:01:25;;;;;;;3.05;0.70;;;19.40;99.90;;;;;;5045180;28;20033;-59
2022/10/24 01:03:52;;;;;;;1.40;0.90;;;19.50;99.90;;;;;;5045179;28;20028;-59
2022/10/24 01:06:41;;;;;;;1.02;0.47;;;19.50;99.90;;;;;;5061110;28;20029;-61
2022/10/24 01:09:41;;;;;;;1.25;0.60;;;19.40;99.90;;;;;;5046111;28;20025;-60
2022/10/24 01:12:40;;;;;;;5.10;0.98;;;19.40;99.90;;;;;;5062658;28;20047;-59
2022/10/24 01:15:42;;;;;;;0.95;0.40;;;19.50;99.90;;;;;;5051125;28;20029;-60
2022/10/24 01:18:46;;;;;;;2.65;0.38;;;19.50;99.90;;;;;;5037641;28;20067;-60
2022/10/24 01:21:28;;;;;;;2.55;0.50;;;19.50;99.90;;;;;;5039366;28;20048;-60
2022/10/24 01:24:18;;;;;;;0.55;0.40;;;19.50;99.90;;;;;;5048551;28;20047;-59
2022/10/24 01:27:13;;;;;;;1.80;1.20;;;19.50;99.90;;;;;;5031034;28;20033;-61
2022/10/24 01:30:04;;;;;;;6.03;1.13;;;19.50;99.90;;;;;;5045772;28;20398;-60
2022/10/24 01:32:57;;;;;;;2.45;0.40;;;19.50;99.90;;;;;;5036495;28;20082;-60
2022/10/24 01:35:46;;;;;;;1.40;0.30;;;19.50;99.90;;;;;;5053660;28;20414;-60
2022/10/24 01:38:32;;;;;;;0.60;0.25;;;19.40;99.90;;;;;;5045807;28;20036;-60
2022/10/24 01:41:03;;;;;;;0.45;0.30;;;19.40;99.90;;;;;;5044934;28;20025;-60
2022/10/24 01:43:41;;;;;;;0.35;0.30;;;19.30;99.90;;;;;;5047810;28;20040;-59
2022/10/24 01:46:13;;;;;;;0.82;0.20;;;19.30;99.90;;;;;;5050765;28;20079;-59
2022/10/24 01:48:46;;;;;;;1.08;0.43;;;19.40;99.90;;;;;;5045853;28;20033;-62
2022/10/24 01:51:17;;;;;;;0.52;0.40;;;19.50;99.90;;;;;;5042459;28;20670;-60
2022/10/24 01:53:47;;;;;;;0.80;0.30;;;19.50;99.90;;;;;;5046563;28;20052;-61
2022/10/24 01:56:14;;;;;;;0.52;0.32;;;19.40;99.90;;;;;;5047263;28;20036;-61
2022/10/24 01:58:42;;;;;;;0.50;0.30;;;19.40;99.90;;;;;;5043513;28;20362;-60
2022/10/24 02:01:15;;;;;;;2.97;0.38;;;19.50;99.90;;;;;;5047176;28;20489;-62
2022/10/24 02:03:57;;;;;;;1.70;0.57;;;19.60;99.90;;;;;;5048332;28;20033;-61
2022/10/24 02:06:39;;;;;;;1.00;0.30;;;19.80;99.90;;;;;;5031940;28;20028;-61
2022/10/24 02:09:18;;;;;;;0.52;0.30;;;19.90;99.90;;;;;;5056725;28;20385;-61
2022/10/24 02:11:47;;;;;;;0.93;0.22;;;20.00;99.90;;;;;;5049727;28;20482;-61
2022/10/24 02:14:36;;;;;;;0.55;0.30;;;20.30;99.90;;;;;;5044021;28;20035;-61
2022/10/24 02:17:03;;;;;;;0.25;0.20;;;20.40;99.90;;;;;;5046829;28;20078;-61
2022/10/24 02:19:32;;;;;;;1.40;0.40;;;20.60;99.90;;;;;;5059439;28;20544;-61
2022/10/24 02:22:14;;;;;;;0.55;0.50;;;20.80;99.90;;;;;;5050614;28;20576;-61
2022/10/24 02:24:54;;;;;;;3.63;0.80;;;20.70;99.90;;;;;;5051914;28;20097;-62
2022/10/24 02:27:28;;;;;;;0.30;0.30;;;20.80;99.90;;;;;;5050990;28;20485;-62
2022/10/24 02:30:05;;;;;;;0.20;0.20;;;20.80;99.90;;;;;;5050048;28;20056;-61
2022/10/24 02:32:36;;;;;;;2.40;0.30;;;20.80;99.90;;;;;;5050515;28;20029;-61
2022/10/24 02:35:06;;;;;;;1.40;0.40;;;20.80;99.90;;;;;;5045543;28;20575;-61
2022/10/24 02:37:37;;;;;;;1.85;1.15;;;20.70;99.90;;;;;;5043236;28;20013;-62
2022/10/24 02:40:07;;;;;;;0.38;0.30;;;20.50;99.90;;;;;;5052075;28;20056;-61
2022/10/24 02:42:34;;;;;;;1.25;0.40;;;20.40;99.90;;;;;;5051586;28;20047;-62
2022/10/24 02:45:03;;;;;;;1.80;0.40;;;20.20;99.90;;;;;;5041851;28;20075;-61
2022/10/24 02:47:32;;;;;;;3.17;0.40;;;20.20;99.90;;;;;;5054161;28;20059;-61
2022/10/24 02:49:59;;;;;;;0.63;0.35;;;20.20;99.90;;;;;;5047573;28;20025;-61
2022/10/24 02:52:29;;;;;;;1.13;0.40;;;20.30;99.90;;;;;;5057936;28;20141;-63
2022/10/24 02:54:56;;;;;;;0.65;0.30;;;20.40;99.90;;;;;;5054507;28;20101;-67
2022/10/24 02:57:25;;;;;;;1.55;0.38;;;20.40;99.90;;;;;;5051298;28;20048;-61
2022/10/24 02:59:53;;;;;;;0.28;0.28;;;20.40;99.90;;;;;;5054772;28;20017;-60
2022/10/24 03:02:20;;;;;;;1.00;0.50;;;20.30;99.90;;;;;;5058745;28;20020;-61
2022/10/24 03:04:47;;;;;;;0.47;0.22;;;20.40;99.90;;;;;;5046337;28;20013;-60
2022/10/24 03:07:15;;;;;;;0.80;0.40;;;20.50;99.90;;;;;;5044658;28;20029;-61
2022/10/24 03:09:42;;;;;;;0.43;0.40;;;20.50;99.90;;;;;;5044426;28;20025;-61
2022/10/24 03:12:14;;;;;;;0.77;0.55;;;20.50;99.90;;;;;;5048435;28;20021;-61
2022/10/24 03:14:42;;;;;;;0.82;0.50;;;20.40;99.90;;;;;;5044540;28;20044;-61
2022/10/24 03:17:09;;;;;;;1.77;0.50;;;20.50;99.90;;;;;;5045485;28;20025;-62
2022/10/24 03:19:37;;;;;;;0.80;0.43;;;20.60;99.90;;;;;;5049798;28;20033;-62
2022/10/24 03:22:04;;;;;;;0.43;0.38;;;20.60;99.90;;;;;;5054786;28;20414;-62
2022/10/24 03:24:32;;;;;;;0.43;0.30;;;20.70;99.90;;;;;;5052267;28;20396;-61
2022/10/24 03:26:59;;;;;;;1.38;0.50;;;20.70;99.90;;;;;;5046093;28;20467;-61
2022/10/24 03:29:26;;;;;;;1.05;0.47;;;20.90;99.90;;;;;;5071193;28;20075;-62
2022/10/24 03:31:53;;;;;;;0.70;0.40;;;21.00;99.90;;;;;;5054395;28;20033;-61
2022/10/24 03:34:20;;;;;;;0.85;0.43;;;21.00;99.90;;;;;;5053419;28;20086;-61
2022/10/24 03:36:48;;;;;;;3.45;0.30;;;21.00;99.90;;;;;;5053357;28;20148;-63
2022/10/24 03:39:15;;;;;;;0.65;0.40;;;21.10;99.90;;;;;;5051803;28;20032;-63
2022/10/24 03:41:42;;;;;;;1.77;0.80;;;21.20;99.90;;;;;;5053758;28;20433;-63
2022/10/24 03:44:09;;;;;;;1.25;0.55;;;21.20;99.90;;;;;;5046774;28;20040;-64
2022/10/24 03:46:37;;;;;;;1.90;0.65;;;21.30;99.90;;;;;;5048752;28;20493;-62
2022/10/24 03:49:04;;;;;;;2.50;0.80;;;21.50;99.90;;;;;;5049027;28;20025;-61
2022/10/24 03:51:31;;;;;;;0.95;0.65;;;21.50;99.90;;;;;;5045178;28;20874;-63
2022/10/24 03:53:58;;;;;;;3.05;1.00;;;21.60;99.90;;;;;;5048782;28;20082;-64
2022/10/24 03:56:26;;;;;;;1.95;1.10;;;21.80;99.90;;;;;;5055368;28;20036;-62
2022/10/24 03:58:53;;;;;;;3.15;1.02;;;21.90;99.90;;;;;;5049069;28;20030;-63
2022/10/24 04:01:21;;;;;;;1.83;1.20;;;21.80;99.90;;;;;;5073869;28;20143;-63
2022/10/24 04:03:48;;;;;;;2.05;1.23;;;21.90;99.90;;;;;;5046150;28;20112;-62
2022/10/24 04:06:15;;;;;;;1.77;1.00;;;21.90;99.90;;;;;;5042536;28;20036;-62
2022/10/24 04:08:42;;;;;;;3.70;1.73;;;22.00;99.90;;;;;;5046436;28;20021;-63
2022/10/24 04:11:10;;;;;;;3.08;0.98;;;22.00;99.90;;;;;;5055974;28;20038;-63
2022/10/24 04:13:37;;;;;;;2.83;0.68;;;21.90;99.90;;;;;;5045358;28;20033;-63
2022/10/24 04:16:04;;;;;;;1.88;1.05;;;21.80;99.90;;;;;;5050691;28;20043;-63
2022/10/24 04:18:32;;;;;;;0.88;0.55;;;21.80;99.90;;;;;;5052054;28;20070;-62
2022/10/24 04:20:59;;;;;;;1.20;0.80;;;22.00;99.90;;;;;;5061826;28;20516;-61
2022/10/24 04:23:26;;;;;;;0.85;0.52;;;22.10;99.90;;;;;;5053929;28;20025;-66
2022/10/24 04:25:53;;;;;;;1.20;0.50;;;22.30;99.90;;;;;;5043320;28;20108;-62
2022/10/24 04:28:21;;;;;;;6.95;1.52;;;22.20;99.90;;;;;;5052426;28;20022;-61
2022/10/24 04:30:55;;;;;;;0.70;0.60;;;22.10;99.90;;;;;;5039964;28;20032;-61
2022/10/24 04:33:22;;;;;;;0.80;0.60;;;22.20;99.90;;;;;;5059597;28;20024;-61
2022/10/24 04:35:50;;;;;;;0.45;0.30;;;22.30;99.90;;;;;;5051038;28;20409;-62
2022/10/24 04:38:18;;;;;;;0.82;0.40;;;22.40;99.90;;;;;;5050030;28;20021;-62
2022/10/24 04:40:53;;;;;;;2.42;0.88;;;22.50;99.90;;;;;;5049903;28;20104;-63
2022/10/24 04:43:21;;;;;;;1.48;0.80;;;22.60;99.90;;;;;;5061682;28;20086;-63
2022/10/24 04:45:49;;;;;;;3.08;0.30;;;22.60;99.90;;;;;;5055917;28;20086;-62
2022/10/24 04:48:16;;;;;;;2.35;0.50;;;22.40;99.90;;;;;;5054282;28;20737;-62
2022/10/24 04:50:45;;;;;;;0.35;0.30;;;22.40;99.90;;;;;;5042038;28;20048;-63
2022/10/24 04:53:12;;;;;;;1.17;0.40;;;22.20;99.90;;;;;;5046956;28;20072;-62
2022/10/24 04:55:40;;;;;;;0.28;0.28;;;22.20;99.90;;;;;;5052317;28;20564;-63
2022/10/24 04:58:07;;;;;;;1.70;0.32;;;22.20;99.90;;;;;;5049491;28;20029;-62
2022/10/24 05:00:34;;;;;;;0.30;0.28;;;22.10;99.90;;;;;;5049244;28;20110;-63
2022/10/24 05:03:04;;;;;;;0.30;0.30;;;22.10;99.90;;;;;;5048531;28;20029;-63
2022/10/24 05:05:31;;;;;;;0.55;0.30;;;22.00;99.90;;;;;;5061621;28;20101;-63
2022/10/24 05:07:58;;;;;;;0.50;0.40;;;21.80;99.90;;;;;;5053172;28;20374;-63
2022/10/24 05:10:25;;;;;;;2.45;0.93;;;21.70;99.90;;;;;;5047598;28;20025;-62
2022/10/24 05:12:52;;;;;;;3.72;1.00;;;21.60;99.90;;;;;;5048066;28;20017;-63
2022/10/24 05:15:20;;;;;;;1.67;0.43;;;21.60;99.90;;;;;;5044186;28;20044;-61
2022/10/24 05:17:48;;;;;;;2.03;0.60;;;21.40;99.90;;;;;;5059245;28;20143;-65
2022/10/24 05:20:15;;;;;;;1.13;0.52;;;21.20;99.90;;;;;;5048102;28;20043;-65
2022/10/24 05:22:43;;;;;;;0.28;0.28;;;21.00;99.90;;;;;;5047720;28;20017;-66
2022/10/24 05:25:10;;;;;;;1.42;0.30;;;20.80;99.90;;;;;;5046934;28;20025;-66
2022/10/24 05:27:37;;;;;;;1.23;0.40;;;20.60;99.90;;;;;;5043199;28;20025;-65
2022/10/24 05:30:05;;;;;;;0.60;0.40;;;20.40;99.90;;;;;;5048443;28;20104;-66
2022/10/24 05:32:33;;;;;;;1.33;0.63;;;20.30;99.90;;;;;;5053429;28;20025;-65
2022/10/24 05:35:00;;;;;;;1.45;0.40;;;20.30;99.90;;;;;;5055631;28;20037;-66
2022/10/24 05:37:27;;;;;;;0.30;0.20;;;20.30;99.90;;;;;;5050055;28;20502;-65
2022/10/24 05:39:55;;;;;;;0.93;0.30;;;20.20;99.90;;;;;;5048472;28;20029;-65
2022/10/24 05:42:22;;;;;;;1.80;0.30;;;20.10;99.90;;;;;;5050869;28;20115;-65
2022/10/24 05:44:49;;;;;;;0.85;0.52;;;20.10;99.90;;;;;;5041183;28;20045;-65
2022/10/24 05:47:16;;;;;;;0.95;0.50;;;20.10;99.90;;;;;;5046784;28;20494;-65
2022/10/24 05:49:44;;;;;;;0.45;0.45;;;20.00;99.90;;;;;;5054646;28;20470;-65
2022/10/24 05:52:11;;;;;;;2.08;0.52;;;20.10;99.90;;;;;;5063489;28;20048;-66
2022/10/24 05:54:38;;;;;;;1.73;0.40;;;20.00;99.90;;;;;;5041465;28;20025;-62
2022/10/24 05:57:05;;;;;;;2.30;0.50;;;20.00;99.90;;;;;;5048801;28;20029;-62
2022/10/24 05:59:33;;;;;;;3.28;0.65;;;20.00;99.90;;;;;;5053779;28;20033;-63
2022/10/24 06:02:00;;;;;;;2.78;0.80;;;19.90;99.90;;;;;;5056556;28;20024;-63
2022/10/24 06:04:27;;;;;;;0.77;0.60;;;20.00;99.90;;;;;;5052642;28;20078;-63
2022/10/24 06:06:54;;;;;;;2.25;0.70;;;20.00;99.90;;;;;;5051383;28;20032;-63
2022/10/24 06:09:22;;;;;;;0.63;0.30;;;20.00;99.90;;;;;;5049036;28;20032;-63
2022/10/24 06:11:49;;;;;;;0.50;0.30;;;20.10;99.90;;;;;;5047841;28;20065;-63
2022/10/24 06:14:17;;;;;;;0.50;0.50;;;20.20;99.90;;;;;;5050907;28;20547;-63
2022/10/24 06:16:44;;;;;;;0.68;0.63;;;20.30;99.90;;;;;;5051391;28;20048;-63
2022/10/24 06:19:11;;;;;;;4.47;0.68;;;20.30;99.90;;;;;;5063360;28;20118;-63
2022/10/24 06:21:38;;;;;;;1.80;0.50;;;20.40;99.90;;;;;;5050218;28;20079;-63
2022/10/24 06:24:06;;;;;;;2.10;0.60;;;20.50;99.90;;;;;;5048730;28;20083;-63
2022/10/24 06:26:33;;;;;;;2.55;0.77;;;20.50;99.90;;;;;;5051617;28;20079;-63
2022/10/24 06:29:00;;;;;;;2.55;0.60;;;20.60;99.90;;;;;;5060315;28;20043;-63
2022/10/24 06:31:27;;;;;;;2.67;0.65;;;20.80;99.90;;;;;;5057591;28;20445;-63
2022/10/24 06:33:55;;;;;;;1.25;0.50;;;20.80;99.90;;;;;;5052920;28;20425;-63
2022/10/24 06:36:22;;;;;;;1.00;0.50;;;20.90;99.90;;;;;;5059098;28;20036;-63
2022/10/24 06:38:49;;;;;;;0.65;0.38;;;20.90;99.90;;;;;;5062416;28;20017;-63
2022/10/24 06:41:16;;;;;;;1.95;1.70;;;21.10;99.90;;;;;;5051762;28;20040;-63
2022/10/24 06:43:44;;;;;;;2.53;2.08;;;21.10;99.90;;;;;;5043127;28;20026;-63
2022/10/24 06:46:14;;;;;;;2.60;2.40;;;21.10;99.90;;;;;;5065093;28;20032;-64
2022/10/24 06:48:41;;;;;;;4.05;2.60;;;21.10;99.90;;;;;;5056900;28;20120;-63
2022/10/24 06:51:09;;;;;;;6.47;5.18;;;21.10;99.90;;;;;;5052075;28;20067;-63
2022/10/24 06:53:36;;;;;;;22.67;20.42;;;21.10;99.90;;;;;;5055860;28;20098;-62
2022/10/24 06:56:05;;;;;;;11.57;10.05;;;21.00;99.90;;;;;;5051200;28;20044;-62
2022/10/24 06:58:34;;;;;;;48.85;37.90;;;20.90;99.90;;;;;;5054061;28;20036;-61
2022/10/24 07:01:08;;;;;;;102.32;69.97;;;20.80;99.90;;;;;;5050086;28;20131;-62
2022/10/24 07:03:35;;;;;;;;;;;20.80;99.90;;;;;;5048530;28;20040;-63
2022/10/24 07:06:08;;;;;;;23.00;15.95;;;20.80;99.90;;;;;;5065352;28;19920;-64
2022/10/24 07:08:35;;;;;;;66.63;43.22;;;20.70;99.90;;;;;;5046441;28;20033;-62
2022/10/24 07:11:02;;;;;;;17.20;11.98;;;20.60;99.90;;;;;;5060997;28;20071;-62
2022/10/24 07:13:30;;;;;;;26.88;17.90;;;20.50;99.90;;;;;;5048511;28;20044;-62
2022/10/24 07:15:57;;;;;;;30.27;18.00;;;20.40;99.90;;;;;;5048824;28;20112;-64
2022/10/24 07:18:24;;;;;;;6.30;4.57;;;20.30;99.90;;;;;;5048526;28;20148;-65
2022/10/24 07:20:52;;;;;;;9.77;6.40;;;20.30;99.90;;;;;;5046858;28;20039;-62
2022/10/24 07:23:19;;;;;;;11.52;4.15;;;20.20;99.90;;;;;;5050744;28;20026;-66
2022/10/24 07:25:46;;;;;;;6.38;5.78;;;20.10;99.90;;;;;;5045560;28;20029;-66
2022/10/24 07:28:14;;;;;;;5.97;3.85;;;20.00;99.90;;;;;;5046831;28;20025;-62
2022/10/24 07:30:44;;;;;;;4.78;3.03;;;20.00;99.90;;;;;;5051997;28;20033;-65
2022/10/24 07:33:11;;;;;;;3.30;1.98;;;19.90;99.90;;;;;;5047962;28;20017;-63
2022/10/24 07:35:42;;;;;;;4.45;1.55;;;19.80;99.90;;;;;;5046202;28;20106;-64
2022/10/24 07:38:09;;;;;;;2.47;1.50;;;19.70;99.90;;;;;;5045979;28;20033;-60
2022/10/24 07:40:37;;;;;;;3.03;1.20;;;19.70;99.90;;;;;;5046409;28;20506;-60
2022/10/24 07:43:04;;;;;;;1.65;1.20;;;19.60;99.90;;;;;;5045742;28;20044;-61
2022/10/24 07:45:31;;;;;;;2.13;1.02;;;19.50;99.90;;;;;;5058732;28;20028;-60
2022/10/24 07:47:59;;;;;;;4.93;2.40;;;19.50;99.90;;;;;;5045979;28;20026;-59
2022/10/24 07:50:29;;;;;;;6.43;2.22;;;19.50;99.90;;;;;;5047539;28;20025;-64
2022/10/24 07:52:56;;;;;;;2.22;1.40;;;19.50;99.90;;;;;;5052098;28;20045;-66
2022/10/24 07:55:23;;;;;;;8.27;1.85;;;19.50;99.90;;;;;;5048693;28;20037;-62
2022/10/24 07:57:51;;;;;;;6.50;1.92;;;19.50;99.90;;;;;;5046507;28;20028;-61
2022/10/24 08:00:18;;;;;;;2.90;1.00;;;19.50;99.90;;;;;;5044448;28;20017;-61
2022/10/24 08:02:46;;;;;;;2.80;1.27;;;19.50;99.90;;;;;;5047288;28;20028;-62
2022/10/24 08:05:13;;;;;;;3.17;1.05;;;19.50;99.90;;;;;;5043230;28;20087;-62
2022/10/24 08:07:41;;;;;;;3.65;1.02;;;19.40;99.90;;;;;;5044283;28;20033;-62
2022/10/24 08:10:12;;;;;;;20.90;14.23;;;19.40;99.90;;;;;;5050388;28;20104;-68
2022/10/24 08:12:39;;;;;;;2.97;1.35;;;19.40;99.90;;;;;;5046495;28;20099;-71
2022/10/24 08:15:07;;;;;;;4.03;1.45;;;19.40;99.90;;;;;;5044272;28;20036;-65
2022/10/24 08:17:37;;;;;;;3.60;1.98;;;19.40;99.90;;;;;;5035802;28;20700;-61
2022/10/24 08:20:07;;;;;;;3.00;1.90;;;19.30;99.90;;;;;;5033798;28;20067;-60
2022/10/24 08:22:35;;;;;;;3.97;2.20;;;19.30;99.90;;;;;;5044149;28;20039;-61
2022/10/24 08:25:05;;;;;;;3.40;2.10;;;19.30;99.90;;;;;;5044969;28;20032;-61
2022/10/24 08:27:32;;;;;;;4.57;1.70;;;19.30;99.90;;;;;;5041375;28;20041;-59
2022/10/24 08:29:59;;;;;;;4.10;2.42;;;19.20;99.90;;;;;;5045660;28;20544;-61
2022/10/24 08:32:26;;;;;;;3.28;2.38;;;19.20;99.90;;;;;;5047645;28;20033;-60
2022/10/24 08:34:54;;;;;;;5.75;2.50;;;19.20;99.90;;;;;;5038996;28;20045;-60
2022/10/24 08:37:21;;;;;;;3.08;1.92;;;19.10;99.90;;;;;;5041421;28;20082;-61
2022/10/24 08:39:49;;;;;;;3.30;1.92;;;19.10;99.90;;;;;;5042035;28;20489;-59
2022/10/24 08:42:17;;;;;;;2.03;1.70;;;19.10;99.90;;;;;;5041366;28;20028;-60
2022/10/24 08:44:46;;;;;;;6.10;1.67;;;19.10;99.90;;;;;;5042695;28;20033;-59
2022/10/24 08:47:43;;;;;;;2.22;1.55;;;19.10;99.90;;;;;;5047000;28;20021;-59
2022/10/24 08:50:29;;;;;;;3.58;2.42;;;19.10;99.90;;;;;;5044685;28;20028;-60
2022/10/24 08:53:27;;;;;;;3.15;2.42;;;19.10;99.90;;;;;;5054060;27;20481;-60
2022/10/24 08:55:57;;;;;;;2.70;2.38;;;19.10;99.90;;;;;;5038491;28;20088;-60
2022/10/24 08:58:40;;;;;;;2.47;2.00;;;19.10;99.90;;;;;;5042682;28;20111;-59
2022/10/24 09:01:34;;;;;;;4.22;2.10;;;19.10;99.90;;;;;;5038305;28;20084;-59
2022/10/24 09:04:07;;;;;;;6.68;3.40;;;19.00;99.90;;;;;;5040628;28;20084;-58
2022/10/24 09:06:36;;;;;;;7.13;3.50;;;19.00;99.90;;;;;;5044736;28;20032;-59
2022/10/24 09:09:35;;;;;;;5.88;3.75;;;19.00;99.90;;;;;;5039633;28;20029;-58
2022/10/24 09:12:17;;;;;;;4.72;3.80;;;19.00;99.90;;;;;;5043398;28;20580;-59
2022/10/24 09:14:46;;;;;;;6.88;3.75;;;19.00;99.90;;;;;;5040647;28;20486;-60
2022/10/24 09:17:19;;;;;;;5.13;3.17;;;19.00;99.90;;;;;;5041032;28;20040;-61
2022/10/24 09:19:58;;;;;;;7.33;3.97;;;18.90;99.90;;;;;;5044031;28;20616;-61
2022/10/24 09:22:29;;;;;;;6.28;3.47;;;18.90;99.90;;;;;;5048774;28;20579;-57
2022/10/24 09:25:06;;;;;;;4.38;2.95;;;18.90;99.90;;;;;;5050751;28;20155;-59
2022/10/24 09:27:37;;;;;;;3.30;2.35;;;18.90;99.90;;;;;;5050447;28;20033;-58
2022/10/24 09:30:06;;;;;;;3.50;2.47;;;18.80;99.90;;;;;;5043313;28;20025;-59
2022/10/24 09:32:35;;;;;;;7.75;2.67;;;18.80;99.90;;;;;;5039924;28;20029;-58
2022/10/24 09:35:11;;;;;;;4.45;2.72;;;18.80;99.90;;;;;;5069496;28;20029;-58
2022/10/24 09:37:50;;;;;;;4.53;2.80;;;18.70;99.90;;;;;;5044385;28;20773;-57
2022/10/24 09:40:34;;;;;;;8.82;3.47;;;18.70;99.90;;;;;;5034951;28;20033;-60
2022/10/24 09:43:01;;;;;;;6.32;4.03;;;18.70;99.90;;;;;;5048837;28;20024;-58
2022/10/24 09:45:45;;;;;;;4.90;3.30;;;18.70;99.90;;;;;;5035572;28;20025;-61
2022/10/24 09:48:24;;;;;;;5.90;3.67;;;18.70;99.90;;;;;;5048613;28;20488;-59
2022/10/24 09:50:54;;;;;;;4.68;3.47;;;18.80;99.90;;;;;;5041850;28;20029;-58
2022/10/24 09:53:28;;;;;;;6.63;4.72;;;18.80;99.90;;;;;;5045934;28;20136;-59
2022/10/24 09:56:06;;;;;;;5.57;3.15;;;18.80;99.90;;;;;;5039020;28;20029;-60
2022/10/24 09:58:34;;;;;;;8.15;3.50;;;18.80;99.90;;;;;;5050444;28;20040;-59
2022/10/24 10:01:05;;;;;;;5.20;3.28;;;18.80;99.90;;;;;;5045809;28;20769;-58
2022/10/24 10:03:34;;;;;;;5.43;3.65;;;18.80;99.90;;;;;;5028389;28;20481;-60
2022/10/24 10:06:15;;;;;;;6.50;4.13;;;18.80;99.90;;;;;;5029307;28;20036;-58
2022/10/24 10:08:50;;;;;;;5.18;3.30;;;18.80;99.90;;;;;;5021566;28;20061;-61
2022/10/24 10:11:31;;;;;;;5.80;3.10;;;18.80;99.90;;;;;;5029112;28;20388;-59
2022/10/24 10:14:01;;;;;;;9.88;3.30;;;18.80;99.90;;;;;;5026871;28;20036;-60
2022/10/24 10:16:30;;;;;;;9.93;3.08;;;18.80;99.90;;;;;;5023691;28;20149;-58
2022/10/24 10:19:13;;;;;;;6.32;3.15;;;18.80;99.90;;;;;;5030128;28;20551;-65
2022/10/24 10:21:56;;;;;;;6.23;3.50;;;18.80;99.90;;;;;;5020076;28;20044;-59
2022/10/24 10:24:38;;;;;;;7.30;3.72;;;18.80;99.90;;;;;;5028486;28;20025;-58
2022/10/24 10:27:29;;;;;;;9.05;4.60;;;18.80;99.90;;;;;;5035033;28;20037;-60
2022/10/24 10:30:17;;;;;;;16.00;5.68;;;18.80;99.90;;;;;;5030128;28;20453;-62
2022/10/24 10:33:06;;;;;;;7.05;4.50;;;18.80;99.90;;;;;;5031431;28;20026;-59
2022/10/24 10:35:50;;;;;;;8.50;5.10;;;18.80;99.90;;;;;;5029723;28;20021;-58
2022/10/24 10:38:35;;;;;;;9.95;6.45;;;18.80;99.90;;;;;;5024907;28;20102;-59
2022/10/24 10:41:10;;;;;;;10.00;4.60;;;18.80;99.90;;;;;;5038996;28;20040;-60
2022/10/24 10:44:10;;;;;;;8.27;4.05;;;18.80;99.90;;;;;;5029064;28;20026;-61
2022/10/24 10:46:58;;;;;;;8.98;4.07;;;18.70;99.90;;;;;;5026933;28;20398;-60
2022/10/24 10:49:34;;;;;;;6.55;3.90;;;18.70;99.90;;;;;;5037360;28;20025;-58
2022/10/24 10:52:22;;;;;;;8.40;3.38;;;18.80;99.90;;;;;;5025727;28;20124;-58
2022/10/24 10:54:50;;;;;;;8.18;3.00;;;18.80;99.90;;;;;;5023767;28;20461;-57
2022/10/24 10:57:32;;;;;;;6.00;3.13;;;18.80;99.90;;;;;;5024654;28;20815;-59
2022/10/24 11:00:34;;;;;;;7.60;3.10;;;18.80;99.90;;;;;;5028670;28;20056;-59
2022/10/24 11:03:25;;;;;;;7.50;3.20;;;18.70;99.90;;;;;;5032149;28;20072;-58
2022/10/24 11:06:32;;;;;;;8.07;3.20;;;18.80;99.90;;;;;;5037571;28;20536;-59
2022/10/24 11:09:21;;;;;;;10.95;3.88;;;18.80;99.90;;;;;;5020294;28;20078;-59
2022/10/24 11:12:12;;;;;;;4.70;2.80;;;18.80;99.90;;;;;;5020328;28;20120;-59
2022/10/24 11:14:58;;;;;;;8.70;3.65;;;18.80;99.90;;;;;;5040225;28;20767;-58
2022/10/24 11:17:36;;;;;;;10.20;3.22;;;18.80;99.90;;;;;;5027338;28;20034;-57
2022/10/24 11:20:27;;;;;;;5.70;3.33;;;18.70;99.90;;;;;;5027099;28;20509;-59
2022/10/24 11:23:09;;;;;;;8.23;3.63;;;18.80;99.90;;;;;;5020924;28;20064;-60
2022/10/24 11:25:42;;;;;;;11.93;3.70;;;18.80;99.90;;;;;;5025618;28;20029;-59
2022/10/24 11:28:28;;;;;;;11.43;3.83;;;18.80;99.90;;;;;;5038502;28;20768;-59
2022/10/24 11:30:58;;;;;;;12.10;3.90;;;18.80;99.90;;;;;;5013953;28;20619;-58
2022/10/24 11:33:30;;;;;;;7.55;3.63;;;18.70;99.90;;;;;;5023404;28;20037;-59
2022/10/24 11:36:08;;;;;;;10.32;3.63;;;18.70;99.90;;;;;;5026930;28;20100;-57
2022/10/24 11:38:49;;;;;;;9.05;3.65;;;18.70;99.90;;;;;;5026090;28;20068;-58
2022/10/24 11:41:55;;;;;;;7.63;3.03;;;18.70;99.90;;;;;;5028300;28;20045;-57
2022/10/24 11:45:03;;;;;;;8.82;4.28;;;18.70;99.90;;;;;;5017799;28;20040;-60
2022/10/24 11:47:39;;;;;;;8.30;2.95;;;18.70;99.90;;;;;;5020724;28;20382;-59
2022/10/24 11:50:21;;;;;;;11.27;3.45;;;18.70;99.90;;;;;;5025726;28;20068;-56
2022/10/24 11:53:05;;;;;;;10.63;3.05;;;18.60;99.90;;;;;;5039113;28;20079;-59
2022/10/24 11:55:37;;;;;;;7.65;2.65;;;18.50;99.90;;;;;;5029416;28;20017;-60
2022/10/24 11:58:12;;;;;;;11.55;3.60;;;18.50;99.90;;;;;;5026273;28;20064;-59
2022/10/24 12:00:51;;;;;;;6.50;2.88;;;18.40;99.90;;;;;;5030500;28;20021;-59
2022/10/24 12:04:07;;;;;;;10.07;3.33;;;18.40;99.90;;;;;;5032438;28;20041;-60
2022/10/24 12:06:57;;;;;;;16.33;3.17;;;18.30;99.90;;;;;;5020618;28;20033;-59
2022/10/24 12:09:52;;;;;;;9.45;3.42;;;18.20;99.90;;;;;;5025944;28;20048;-61
2022/10/24 12:12:46;;;;;;;14.27;3.30;;;18.10;99.90;;;;;;5024278;28;20041;-60
2022/10/24 12:15:42;;;;;;;11.23;3.83;;;18.10;99.90;;;;;;5023098;28;20176;-60
2022/10/24 12:18:30;;;;;;;8.05;3.10;;;18.00;99.90;;;;;;5028968;28;20055;-60
2022/10/24 12:21:04;;;;;;;12.98;3.40;;;17.90;99.90;;;;;;5025634;28;20021;-61
2022/10/24 12:23:31;;;;;;;8.80;3.40;;;17.80;99.90;;;;;;5029386;28;20115;-61
2022/10/24 12:26:14;;;;;;;13.77;3.17;;;17.80;99.90;;;;;;5024135;28;20121;-61
2022/10/24 12:28:42;;;;;;;11.70;3.40;;;17.70;99.90;;;;;;5032725;28;20377;-60
2022/10/24 12:31:17;;;;;;;18.45;4.22;;;17.60;99.90;;;;;;5038525;28;20025;-60
2022/10/24 12:33:46;;;;;;;14.13;4.22;;;17.60;99.90;;;;;;5030704;28;20030;-60
2022/10/24 12:36:14;;;;;;;12.27;5.95;;;17.60;99.90;;;;;;5036198;28;20027;-61
2022/10/24 12:38:41;;;;;;;13.15;4.90;;;17.50;99.90;;;;;;5037514;28;20619;-61
2022/10/24 12:41:32;;;;;;;11.98;5.40;;;17.50;99.90;;;;;;5037339;28;20041;-61
2022/10/24 12:44:33;;;;;;;15.75;5.53;;;17.40;99.90;;;;;;5033179;28;20040;-61
2022/10/24 12:47:16;;;;;;;18.50;6.78;;;17.40;99.90;;;;;;5030281;28;20086;-61
2022/10/24 12:49:44;;;;;;;18.85;8.30;;;17.40;99.90;;;;;;5028322;28;20026;-60
2022/10/24 12:52:32;;;;;;;13.82;6.13;;;17.50;99.90;;;;;;5031584;28;20420;-60
2022/10/24 12:55:00;;;;;;;15.65;7.03;;;17.40;99.90;;;;;;5029813;28;20021;-62
2022/10/24 12:57:44;;;;;;;16.48;5.35;;;17.30;99.90;;;;;;5026533;28;20048;-61
2022/10/24 13:00:28;;;;;;;14.02;5.00;;;17.20;99.90;;;;;;5028486;28;20024;-60
2022/10/24 13:03:08;;;;;;;23.27;5.70;;;17.20;99.90;;;;;;5024731;28;20038;-63
2022/10/24 13:05:53;;;;;;;21.23;5.57;;;17.10;99.90;;;;;;5036580;28;20083;-61
2022/10/24 13:08:42;;;;;;;24.45;6.00;;;17.10;99.90;;;;;;5024339;28;20056;-60
2022/10/24 13:11:25;;;;;;;16.02;5.93;;;17.10;99.90;;;;;;5032271;28;20033;-60
2022/10/24 13:14:28;;;;;;;14.63;6.10;;;17.10;99.90;;;;;;5028239;28;20037;-61
2022/10/24 13:17:36;;;;;;;20.42;6.90;;;17.10;99.90;;;;;;5027248;28;20034;-61
2022/10/24 13:20:22;;;;;;;19.65;5.15;;;17.10;99.90;;;;;;5029226;28;20389;-61